Terminal Aerodrome Forecast
Issued by NWS

Home | Current Version | Previous Version | Text Only | Print | Product List | Glossary On
Versions: 1 2 3 4 5 6 7 8 9 10 11 12 13 14 15 16 17 18 19 20 21 22 23 24 25 26 27 28 29 30 31 32
000
FTUS43 KDVN 010200 AAB
TAFCID
TAF AMD
KCID 010222Z 0102/0124 13005KT 1 1/2SM -SN BR BKN004 OVC018
     FM010600 08010KT 1/2SM SN FG VV003
     FM011200 06018G25KT 1SM -SN OVC004
     FM011700 04020G30KT 1SM -SN BLSN OVC004=

USA.gov is the U.S. government's official web portal to all federal, state and local government web resources and services.